Time;durP1;ratioP1;P1;durP2;ratioP2;P2;SDS_P1;SDS_P2;PMS_P1;PMS_P2;Temp;Humidity;BMP_temperature;BMP_pressure;BME280_temperature;BME280_humidity;BME280_pressure;Samples;Min_cycle;Max_cycle;Signal;HPM_P1;HPM_P2
2024/03/03 00:04:21;;;;;;;5.78;2.95;;;16.60;99.90;;;;;;10467526;28;20498;-59
2024/03/03 00:09:23;;;;;;;4.30;2.97;;;16.80;99.90;;;;;;10453844;28;20051;-59
2024/03/03 00:14:26;;;;;;;5.10;3.50;;;16.50;99.90;;;;;;10467690;28;20561;-59
2024/03/03 00:19:28;;;;;;;6.38;3.55;;;16.70;99.90;;;;;;10460390;28;20143;-59
2024/03/03 00:24:30;;;;;;;4.37;3.10;;;16.50;99.90;;;;;;10466741;28;20124;-58
2024/03/03 00:29:33;;;;;;;4.05;2.45;;;16.60;99.90;;;;;;10464951;28;20095;-59
2024/03/03 00:34:36;;;;;;;3.22;2.40;;;16.30;99.90;;;;;;10456142;28;20048;-57
2024/03/03 00:39:38;;;;;;;4.45;2.72;;;16.50;99.90;;;;;;10463861;28;20056;-59
2024/03/03 00:44:42;;;;;;;1.92;1.65;;;16.60;99.90;;;;;;10465909;28;20057;-58
2024/03/03 00:49:44;;;;;;;4.50;2.33;;;16.40;99.90;;;;;;10469329;28;20776;-59
2024/03/03 00:54:46;;;;;;;3.00;1.70;;;16.10;99.90;;;;;;10473960;28;20056;-59
2024/03/03 00:59:49;;;;;;;3.90;1.70;;;15.80;99.90;;;;;;10472336;28;20183;-60
2024/03/03 01:04:51;;;;;;;6.63;3.03;;;15.80;99.90;;;;;;10471000;28;20063;-59
2024/03/03 01:09:53;;;;;;;2.58;1.55;;;16.30;99.90;;;;;;10471732;28;20324;-58
2024/03/03 01:14:57;;;;;;;;;;;16.20;99.90;;;;;;10469885;28;20079;-58
2024/03/03 01:19:59;;;;;;;1.73;1.25;;;16.00;99.90;;;;;;10478068;28;19923;-58
2024/03/03 01:25:01;;;;;;;4.70;2.47;;;15.70;99.90;;;;;;10469545;28;20056;-57
2024/03/03 01:30:05;;;;;;;3.25;1.08;;;15.80;99.90;;;;;;10470480;28;20075;-60
2024/03/03 01:35:08;;;;;;;2.67;1.70;;;15.90;99.90;;;;;;10470913;28;20053;-59
2024/03/03 01:40:12;;;;;;;3.13;1.77;;;15.10;99.90;;;;;;10471696;28;20098;-57
2024/03/03 01:45:22;;;;;;;1.98;1.35;;;16.00;99.90;;;;;;10470665;28;20419;-57
2024/03/03 01:50:26;;;;;;;2.58;1.40;;;15.90;99.90;;;;;;10466044;28;20048;-59
2024/03/03 01:55:28;;;;;;;3.25;1.65;;;16.30;99.90;;;;;;10465016;28;20044;-56
2024/03/03 02:00:35;;;;;;;7.03;1.25;;;16.30;99.90;;;;;;10468675;28;20063;-59
2024/03/03 02:05:37;;;;;;;3.13;1.77;;;16.40;99.90;;;;;;10462941;28;20465;-60
2024/03/03 02:10:39;;;;;;;3.53;1.20;;;16.40;99.90;;;;;;10464529;28;20755;-59
2024/03/03 02:15:43;;;;;;;3.25;2.08;;;16.40;99.90;;;;;;10463962;28;20064;-58
2024/03/03 02:20:45;;;;;;;3.80;1.55;;;16.40;99.90;;;;;;10466082;28;20064;-59
2024/03/03 02:25:49;;;;;;;1.80;1.35;;;16.40;99.90;;;;;;10469233;28;20114;-58
2024/03/03 02:30:51;;;;;;;2.88;1.33;;;16.30;99.90;;;;;;10465014;28;20570;-60
2024/03/03 02:35:53;;;;;;;1.27;1.00;;;16.30;99.90;;;;;;10465536;28;20487;-59
2024/03/03 02:40:56;;;;;;;2.00;1.02;;;16.40;99.90;;;;;;10474838;28;22644;-60
2024/03/03 02:45:58;;;;;;;1.60;0.90;;;16.40;99.90;;;;;;10473114;28;20760;-58
2024/03/03 02:51:00;;;;;;;3.07;0.83;;;16.40;99.90;;;;;;10473324;28;20163;-59
2024/03/03 02:56:05;;;;;;;2.75;1.10;;;16.40;99.90;;;;;;10476316;28;20083;-59
2024/03/03 03:01:07;;;;;;;2.75;1.27;;;16.40;99.90;;;;;;10473743;28;20397;-59
2024/03/03 03:06:09;;;;;;;2.87;1.27;;;16.30;99.90;;;;;;10473778;28;20412;-59
2024/03/03 03:11:14;;;;;;;4.13;2.10;;;16.40;99.90;;;;;;10472681;28;20617;-60
2024/03/03 03:16:16;;;;;;;6.05;3.15;;;16.30;99.90;;;;;;10476811;28;20052;-59
2024/03/03 03:21:20;;;;;;;2.53;1.00;;;16.30;99.90;;;;;;10473624;28;20056;-58
2024/03/03 03:26:24;;;;;;;2.17;1.10;;;16.30;99.90;;;;;;10468734;28;20049;-58
2024/03/03 03:31:26;;;;;;;1.05;0.60;;;16.10;99.90;;;;;;10465020;28;20041;-60
2024/03/03 03:36:28;;;;;;;2.37;1.30;;;15.80;99.90;;;;;;10476663;28;20051;-58
2024/03/03 03:41:31;;;;;;;2.65;0.90;;;15.50;99.90;;;;;;10466524;28;20904;-58
2024/03/03 03:46:33;;;;;;;3.90;1.17;;;15.50;99.90;;;;;;10476325;28;20040;-61
2024/03/03 03:51:35;;;;;;;2.90;0.90;;;15.70;99.90;;;;;;10477397;28;20509;-58
2024/03/03 03:56:39;;;;;;;3.72;1.30;;;15.90;99.90;;;;;;10469443;28;20048;-57
2024/03/03 04:15:33;;;;;;;1.27;0.98;;;16.00;99.90;;;;;;10495654;27;20760;-57
2024/03/03 04:20:35;;;;;;;3.92;1.33;;;15.70;99.90;;;;;;10513224;28;20535;-61
2024/03/03 04:25:37;;;;;;;3.47;1.58;;;15.90;99.90;;;;;;10515158;28;20054;-60
2024/03/03 04:30:41;;;;;;;3.75;0.85;;;15.80;99.90;;;;;;10517407;28;20607;-57
2024/03/03 04:35:43;;;;;;;4.30;1.45;;;15.70;99.90;;;;;;10508189;28;20083;-59
2024/03/03 04:40:45;;;;;;;4.07;1.38;;;15.40;99.90;;;;;;10510949;28;20056;-59
2024/03/03 04:45:49;;;;;;;4.15;1.90;;;15.40;99.90;;;;;;10511827;28;20047;-58
2024/03/03 04:50:51;;;;;;;3.28;1.58;;;15.70;99.90;;;;;;10509650;28;20495;-59
2024/03/03 04:55:53;;;;;;;;;;;15.90;99.90;;;;;;10518431;28;20399;-59
2024/03/03 05:00:56;;;;;;;3.38;1.75;;;15.90;99.90;;;;;;10514346;28;20434;-58
2024/03/03 05:05:58;;;;;;;2.63;1.23;;;15.90;99.90;;;;;;10513761;28;20155;-59
2024/03/03 05:11:01;;;;;;;1.40;1.30;;;15.90;99.90;;;;;;10511978;28;20845;-54
2024/03/03 05:16:05;;;;;;;1.40;1.00;;;15.90;99.90;;;;;;10509329;28;20055;-59
2024/03/03 05:21:07;;;;;;;5.32;1.50;;;15.90;99.90;;;;;;10504585;28;20849;-58
2024/03/03 05:26:09;;;;;;;4.30;1.65;;;15.80;99.90;;;;;;10486285;28;20094;-59
2024/03/03 05:31:12;;;;;;;3.37;1.47;;;15.90;99.90;;;;;;10486167;28;20044;-59
2024/03/03 05:36:15;;;;;;;3.70;1.25;;;15.90;99.90;;;;;;10480205;28;20494;-59
2024/03/03 05:41:16;;;;;;;3.60;1.20;;;15.90;99.90;;;;;;10481075;28;20122;-58
2024/03/03 05:46:20;;;;;;;2.83;1.30;;;16.00;99.90;;;;;;10485870;28;20217;-58
2024/03/03 05:51:22;;;;;;;2.60;1.45;;;15.90;99.90;;;;;;10481277;28;20905;-58
2024/03/03 05:56:24;;;;;;;3.90;1.00;;;16.00;99.90;;;;;;10486364;28;20051;-60
2024/03/03 06:01:29;;;;;;;2.15;0.98;;;16.20;99.90;;;;;;10485618;28;20047;-59
2024/03/03 06:06:30;;;;;;;6.03;1.10;;;16.50;99.90;;;;;;10479691;28;20117;-58
2024/03/03 06:11:32;;;;;;;3.73;0.90;;;16.50;99.90;;;;;;10471531;28;20170;-57
2024/03/03 06:16:36;;;;;;;3.20;0.90;;;16.60;99.90;;;;;;10482491;28;20061;-59
2024/03/03 06:21:38;;;;;;;2.10;1.13;;;16.60;99.90;;;;;;10478559;28;21051;-59
2024/03/03 06:26:41;;;;;;;2.33;0.95;;;16.60;99.90;;;;;;10481771;28;20507;-59
2024/03/03 06:31:46;;;;;;;2.20;1.23;;;16.50;99.90;;;;;;10478413;28;20068;-59
2024/03/03 06:36:47;;;;;;;0.85;0.70;;;16.60;99.90;;;;;;10479167;28;20611;-60
2024/03/03 06:41:50;;;;;;;1.33;0.68;;;16.50;99.90;;;;;;10476296;28;20062;-58
2024/03/03 06:46:53;;;;;;;1.77;0.73;;;16.30;99.90;;;;;;10476706;28;20048;-59
2024/03/03 06:51:55;;;;;;;1.58;0.70;;;16.00;99.90;;;;;;10472020;28;20052;-59
2024/03/03 06:56:57;;;;;;;1.13;0.90;;;16.30;99.90;;;;;;10474339;28;20499;-59
2024/03/03 07:02:01;;;;;;;0.60;0.52;;;15.90;99.90;;;;;;10468368;28;20742;-59
2024/03/03 07:07:03;;;;;;;0.85;0.82;;;16.30;99.90;;;;;;10467765;28;20200;-59
2024/03/03 07:12:09;;;;;;;5.78;1.23;;;16.30;99.90;;;;;;10462710;28;20045;-58
2024/03/03 07:17:12;;;;;;;2.00;1.30;;;16.50;99.90;;;;;;10471258;28;20534;-60
2024/03/03 07:22:14;;;;;;;3.00;1.75;;;16.50;99.90;;;;;;10460287;28;20087;-57
2024/03/03 07:27:16;;;;;;;3.83;1.70;;;16.50;99.90;;;;;;10460487;28;20081;-60
2024/03/03 07:32:19;;;;;;;4.13;1.60;;;16.60;99.90;;;;;;10470835;28;20045;-59
2024/03/03 07:37:21;;;;;;;3.33;2.10;;;16.60;99.90;;;;;;10461934;28;20394;-60
2024/03/03 07:42:23;;;;;;;3.57;2.27;;;16.60;99.90;;;;;;10460335;28;20161;-60
2024/03/03 07:47:26;;;;;;;4.40;1.90;;;16.60;99.90;;;;;;10464457;28;20155;-58
2024/03/03 07:52:28;;;;;;;5.18;2.20;;;16.60;99.90;;;;;;10459255;28;21419;-60
2024/03/03 07:57:30;;;;;;;4.07;2.13;;;16.70;99.90;;;;;;10462697;28;20171;-60
2024/03/03 08:02:34;;;;;;;3.08;1.95;;;16.60;99.90;;;;;;10459161;28;20107;-59
2024/03/03 08:07:36;;;;;;;3.65;2.03;;;16.70;99.90;;;;;;10457728;28;20696;-60
2024/03/03 08:12:38;;;;;;;3.88;1.70;;;16.70;99.90;;;;;;10460400;28;20048;-57
2024/03/03 08:17:41;;;;;;;3.65;1.48;;;16.70;99.90;;;;;;10458522;28;20160;-59
2024/03/03 08:22:45;;;;;;;5.15;2.67;;;16.80;99.90;;;;;;10460302;28;20142;-59
2024/03/03 08:27:47;;;;;;;7.20;1.55;;;16.80;99.90;;;;;;10454758;28;20051;-60
2024/03/03 08:32:50;;;;;;;3.80;1.75;;;16.90;99.90;;;;;;10463650;28;20868;-60
2024/03/03 08:37:54;;;;;;;3.45;2.03;;;16.90;99.90;;;;;;10470914;28;20699;-59
2024/03/03 08:42:57;;;;;;;4.07;2.63;;;16.80;99.90;;;;;;10458834;28;20455;-59
2024/03/03 08:48:02;;;;;;;12.18;3.50;;;17.00;99.90;;;;;;10464220;28;20063;-57
2024/03/03 08:53:05;;;;;;;6.20;3.45;;;17.00;99.90;;;;;;10463168;28;20095;-60
2024/03/03 08:58:07;;;;;;;3.38;2.85;;;17.10;99.90;;;;;;10469556;28;21214;-58
2024/03/03 09:03:10;;;;;;;4.47;2.95;;;17.10;99.90;;;;;;10471245;28;20060;-60
2024/03/03 09:08:12;;;;;;;8.63;3.47;;;17.10;99.90;;;;;;10471487;28;20135;-59
2024/03/03 09:13:14;;;;;;;5.50;2.75;;;17.20;99.90;;;;;;10473694;28;20044;-58
2024/03/03 09:18:18;;;;;;;2.70;2.03;;;17.20;99.90;;;;;;10473966;28;20049;-59
2024/03/03 09:23:20;;;;;;;4.57;2.15;;;17.20;99.90;;;;;;10473165;28;20511;-58
2024/03/03 09:28:22;;;;;;;11.88;3.10;;;17.20;99.90;;;;;;10476225;28;20060;-57
2024/03/03 09:33:25;;;;;;;3.60;2.90;;;17.20;99.90;;;;;;10471386;28;20055;-59
2024/03/03 09:38:27;;;;;;;6.30;4.95;;;17.20;99.90;;;;;;10466261;28;20091;-57
2024/03/03 09:43:40;;;;;;;7.68;4.18;;;17.30;99.90;;;;;;10472306;28;20832;-57
2024/03/03 09:48:44;;;;;;;;;;;17.50;99.90;;;;;;10466686;28;21428;-57
2024/03/03 09:53:47;;;;;;;11.88;4.43;;;17.50;99.90;;;;;;10479024;28;20054;-54
2024/03/03 09:58:53;;;;;;;7.60;4.78;;;16.60;99.90;;;;;;10471590;28;20055;-56
2024/03/03 10:03:58;;;;;;;9.50;4.60;;;16.10;99.90;;;;;;10473420;28;20130;-57
2024/03/03 10:09:04;;;;;;;8.15;4.85;;;15.70;99.90;;;;;;10465922;28;20059;-59
2024/03/03 10:14:06;;;;;;;7.93;5.68;;;14.70;99.90;;;;;;10468641;28;20276;-59
2024/03/03 10:19:09;;;;;;;10.45;5.68;;;13.60;99.90;;;;;;10477084;28;20055;-58
2024/03/03 10:24:25;;;;;;;7.80;5.22;;;13.40;99.90;;;;;;10476474;28;20114;-58
2024/03/03 10:29:28;;;;;;;9.25;5.70;;;12.50;99.90;;;;;;10465121;28;20461;-58
2024/03/03 10:34:31;;;;;;;;;;;12.80;99.90;;;;;;10475097;28;20047;-58
2024/03/03 10:39:34;;;;;;;7.22;5.30;;;12.60;99.90;;;;;;10472792;28;20161;-59
2024/03/03 10:44:36;;;;;;;9.97;5.73;;;12.50;99.90;;;;;;10466744;28;20187;-57
2024/03/03 10:49:41;;;;;;;10.10;4.93;;;12.70;99.90;;;;;;10471681;28;20439;-59
2024/03/03 10:54:44;;;;;;;7.22;5.97;;;14.40;99.90;;;;;;10469005;28;20052;-58
2024/03/03 10:59:47;;;;;;;7.70;4.45;;;16.00;99.90;;;;;;10468858;28;20056;-59
2024/03/03 11:04:52;;;;;;;8.98;4.03;;;16.20;99.90;;;;;;10466389;28;20439;-59
2024/03/03 11:09:55;;;;;;;7.53;3.67;;;16.60;99.90;;;;;;10469948;28;20572;-57
2024/03/03 11:15:04;;;;;;;6.65;4.18;;;16.60;99.90;;;;;;10465434;28;20048;-58
2024/03/03 11:20:16;;;;;;;8.23;3.55;;;16.30;99.90;;;;;;10468697;28;20371;-59
2024/03/03 11:25:22;;;;;;;6.72;4.45;;;16.80;99.90;;;;;;10460145;28;20051;-60
2024/03/03 11:30:25;;;;;;;5.85;3.85;;;16.90;99.90;;;;;;10471526;28;20055;-57
2024/03/03 11:35:29;;;;;;;;;;;16.90;99.90;;;;;;10466178;28;20076;-57
2024/03/03 11:40:32;;;;;;;5.47;3.15;;;17.00;99.90;;;;;;10459128;28;19932;-60
2024/03/03 11:45:47;;;;;;;7.40;4.20;;;17.10;99.90;;;;;;10467708;28;20055;-58
2024/03/03 11:50:51;;;;;;;8.18;3.95;;;16.10;99.90;;;;;;10464691;28;20088;-56
2024/03/03 11:55:55;;;;;;;5.65;4.55;;;16.40;99.90;;;;;;10464572;28;20084;-59
2024/03/03 12:01:09;;;;;;;6.50;4.30;;;17.20;99.90;;;;;;10465527;28;20052;-59
2024/03/03 12:06:16;;;;;;;6.13;4.05;;;17.20;99.90;;;;;;10474995;28;20134;-58
2024/03/03 12:11:18;;;;;;;9.23;3.92;;;18.00;99.90;;;;;;10475162;28;20792;-58
2024/03/03 12:16:20;;;;;;;5.03;3.90;;;18.30;99.90;;;;;;10469779;28;20051;-59
2024/03/03 12:21:25;;;;;;;6.40;3.75;;;17.70;99.90;;;;;;10465830;28;20063;-61
2024/03/03 12:26:27;;;;;;;6.10;4.43;;;18.20;99.90;;;;;;10470960;28;20083;-59
2024/03/03 12:31:32;;;;;;;5.22;4.43;;;18.40;99.90;;;;;;10467848;28;20822;-57
2024/03/03 12:36:36;;;;;;;7.95;4.78;;;18.40;99.90;;;;;;10477073;28;20044;-60
2024/03/03 12:41:38;;;;;;;6.18;4.57;;;17.80;99.90;;;;;;10482120;28;20143;-59
2024/03/03 12:46:40;;;;;;;;;;;18.20;99.90;;;;;;10481318;28;20416;-59
2024/03/03 12:51:44;;;;;;;10.43;5.20;;;16.70;99.90;;;;;;10478536;28;19925;-59
2024/03/03 12:56:47;;;;;;;9.25;4.93;;;16.90;99.90;;;;;;10476435;28;20052;-57
2024/03/03 13:01:49;;;;;;;5.40;4.15;;;16.10;99.90;;;;;;10470971;28;20110;-59
2024/03/03 13:06:53;;;;;;;8.88;5.20;;;16.60;99.90;;;;;;10481220;28;20064;-60
2024/03/03 13:11:56;;;;;;;6.57;5.20;;;16.30;99.90;;;;;;10477634;28;20175;-60
2024/03/03 13:17:05;;;;;;;8.65;4.95;;;15.80;99.90;;;;;;10476352;28;20079;-56
2024/03/03 13:22:08;;;;;;;6.60;5.13;;;16.20;99.90;;;;;;10478325;28;20136;-56
2024/03/03 13:27:11;;;;;;;5.20;4.57;;;16.30;99.90;;;;;;10477898;28;20072;-59
2024/03/03 13:32:13;;;;;;;8.80;3.97;;;16.00;99.90;;;;;;10474789;28;20059;-59
2024/03/03 13:37:17;;;;;;;7.13;4.53;;;16.40;99.90;;;;;;10471790;28;20060;-60
2024/03/03 13:42:19;;;;;;;5.65;4.20;;;16.10;99.90;;;;;;10469835;28;20052;-59
2024/03/03 13:47:21;;;;;;;5.77;4.30;;;15.90;99.90;;;;;;10470606;28;20056;-60
2024/03/03 13:52:24;;;;;;;5.00;4.07;;;16.60;99.90;;;;;;10470164;28;20047;-59
2024/03/03 13:57:26;;;;;;;6.43;3.30;;;16.30;99.90;;;;;;10455854;28;20494;-60
2024/03/03 14:02:29;;;;;;;;;;;16.10;99.90;;;;;;10467789;28;20052;-60
2024/03/03 14:07:33;;;;;;;5.32;3.17;;;15.80;99.90;;;;;;10473334;28;20705;-59
2024/03/03 14:12:38;;;;;;;5.70;3.38;;;16.20;99.90;;;;;;10466607;28;20147;-60
2024/03/03 14:17:41;;;;;;;6.22;3.90;;;15.60;99.90;;;;;;10467895;28;20164;-58
2024/03/03 14:22:49;;;;;;;3.97;2.78;;;15.30;99.90;;;;;;10474901;28;20090;-59
2024/03/03 14:27:51;;;;;;;5.65;3.30;;;15.30;99.90;;;;;;10463807;28;20085;-59
2024/03/03 14:32:53;;;;;;;8.23;3.53;;;15.30;99.90;;;;;;10468830;28;20099;-59
2024/03/03 14:37:57;;;;;;;4.63;3.13;;;16.60;99.90;;;;;;10470233;28;20112;-63
2024/03/03 14:42:59;;;;;;;5.53;3.20;;;16.80;99.90;;;;;;10459968;28;20500;-59
2024/03/03 14:48:01;;;;;;;6.25;3.10;;;16.30;99.90;;;;;;10468947;28;20113;-58
2024/03/03 14:53:05;;;;;;;5.20;3.03;;;18.20;99.90;;;;;;10464469;28;20112;-57
2024/03/03 14:58:08;;;;;;;4.05;2.83;;;17.30;99.90;;;;;;10460095;28;20041;-59
2024/03/03 15:03:10;;;;;;;5.78;2.90;;;17.40;99.90;;;;;;10463648;28;20049;-57
2024/03/03 15:08:13;;;;;;;5.35;2.65;;;18.00;99.90;;;;;;10459696;28;20136;-59
2024/03/03 15:13:15;;;;;;;8.82;3.22;;;17.30;99.90;;;;;;10463661;28;20187;-60
2024/03/03 15:18:17;;;;;;;7.13;2.73;;;16.30;99.90;;;;;;10457926;28;20091;-60
2024/03/03 15:23:20;;;;;;;8.53;3.57;;;15.70;99.90;;;;;;10468375;28;20490;-58
2024/03/03 15:28:22;;;;;;;4.97;2.42;;;15.30;99.90;;;;;;10472102;28;20060;-60
2024/03/03 15:33:28;;;;;;;5.37;2.50;;;15.30;99.90;;;;;;10467078;28;20052;-60
2024/03/03 15:38:32;;;;;;;2.05;1.40;;;14.90;99.90;;;;;;10464270;28;20044;-58
2024/03/03 15:43:34;;;;;;;1.95;1.63;;;15.30;99.90;;;;;;10469931;28;20052;-59
2024/03/03 15:48:36;;;;;;;4.67;2.47;;;13.40;99.90;;;;;;10461891;28;20063;-60
2024/03/03 15:53:39;;;;;;;2.77;1.53;;;13.40;99.90;;;;;;10458705;28;20566;-59
2024/03/03 15:58:41;;;;;;;2.40;1.25;;;13.40;99.90;;;;;;10453244;28;20099;-56
2024/03/03 16:03:43;;;;;;;6.57;1.73;;;13.90;99.90;;;;;;10460784;28;20135;-59
2024/03/03 16:08:47;;;;;;;2.53;1.10;;;13.80;99.90;;;;;;10461576;28;20439;-61
2024/03/03 16:13:49;;;;;;;4.43;1.48;;;13.20;99.90;;;;;;10457785;28;20084;-59
2024/03/03 16:18:52;;;;;;;6.47;1.80;;;12.80;99.90;;;;;;10461920;28;20088;-58
2024/03/03 16:23:56;;;;;;;7.07;2.33;;;13.70;99.90;;;;;;10460201;28;20114;-59
2024/03/03 16:28:58;;;;;;;5.60;2.50;;;14.10;99.90;;;;;;10464777;28;20052;-58
2024/03/03 16:34:01;;;;;;;7.50;2.65;;;13.50;99.90;;;;;;10459576;28;20079;-59
2024/03/03 16:39:05;;;;;;;5.50;3.30;;;12.70;99.90;;;;;;10459714;28;20063;-60
2024/03/03 16:44:07;;;;;;;9.07;2.90;;;12.60;99.90;;;;;;10454026;28;20048;-61
2024/03/03 16:49:09;;;;;;;4.50;3.22;;;12.20;99.90;;;;;;10455979;28;20119;-60
2024/03/03 16:54:12;;;;;;;10.20;4.30;;;13.40;99.90;;;;;;10459297;28;20234;-61
2024/03/03 16:59:14;;;;;;;10.65;3.13;;;13.10;99.90;;;;;;10449487;28;20935;-59
2024/03/03 17:04:16;;;;;;;10.97;3.30;;;12.20;99.90;;;;;;10470067;28;20796;-61
2024/03/03 17:09:20;;;;;;;7.37;2.10;;;12.40;99.90;;;;;;10464156;28;20044;-59
2024/03/03 17:14:22;;;;;;;4.53;2.00;;;12.70;99.90;;;;;;10464027;28;20044;-58
2024/03/03 17:19:25;;;;;;;20.23;3.38;;;12.10;99.90;;;;;;10467076;28;20825;-57
2024/03/03 17:24:29;;;;;;;4.82;2.00;;;11.80;99.90;;;;;;10469961;28;20079;-59
2024/03/03 17:29:31;;;;;;;4.93;1.33;;;12.00;99.90;;;;;;10470958;28;23079;-62
2024/03/03 17:34:34;;;;;;;12.50;2.13;;;11.80;99.90;;;;;;10475958;28;20148;-59
2024/03/03 17:39:38;;;;;;;11.90;1.65;;;11.80;99.90;;;;;;10473880;28;20045;-61
2024/03/03 17:44:40;;;;;;;12.15;1.88;;;13.20;99.90;;;;;;10471106;28;20486;-59
2024/03/03 17:49:42;;;;;;;0.83;0.73;;;12.60;99.90;;;;;;10474746;28;20052;-61
2024/03/03 17:54:46;;;;;;;2.45;1.20;;;13.10;99.90;;;;;;10465534;28;22674;-61
2024/03/03 17:59:48;;;;;;;10.30;2.42;;;13.00;99.90;;;;;;10467202;28;20071;-60
2024/03/03 18:04:51;;;;;;;7.93;2.05;;;14.10;99.90;;;;;;10471715;28;20032;-60
2024/03/03 18:09:54;;;;;;;9.53;2.20;;;13.00;99.90;;;;;;10470574;28;20040;-57
2024/03/03 18:14:56;;;;;;;10.73;1.95;;;12.40;99.90;;;;;;10467519;28;20056;-57
2024/03/03 18:19:58;;;;;;;8.23;2.17;;;13.80;99.90;;;;;;10466048;28;20064;-57
2024/03/03 18:25:02;;;;;;;6.32;1.60;;;11.70;99.90;;;;;;10458767;28;20053;-57
2024/03/03 18:30:06;;;;;;;7.13;2.47;;;10.70;99.90;;;;;;10465643;28;20113;-58
2024/03/03 18:35:09;;;;;;;7.80;2.10;;;10.30;99.90;;;;;;10470067;28;20040;-56
2024/03/03 18:40:13;;;;;;;6.28;1.42;;;10.70;99.90;;;;;;10471427;28;20051;-59
2024/03/03 18:45:17;;;;;;;16.75;2.83;;;10.80;99.90;;;;;;10465737;28;20044;-59
2024/03/03 18:50:21;;;;;;;11.77;2.30;;;10.00;99.90;;;;;;10468518;28;20091;-60
2024/03/03 18:55:25;;;;;;;11.23;2.28;;;10.60;99.90;;;;;;10462490;28;20166;-57
2024/03/03 19:00:27;;;;;;;10.32;2.58;;;9.90;99.90;;;;;;10461744;28;20055;-59
2024/03/03 19:05:29;;;;;;;3.55;1.80;;;10.10;99.90;;;;;;10468919;28;20152;-61
2024/03/03 19:10:32;;;;;;;5.70;1.50;;;10.50;99.90;;;;;;10465913;28;20056;-59
2024/03/03 19:15:35;;;;;;;9.70;1.75;;;10.40;99.90;;;;;;10465398;28;20761;-60
2024/03/03 19:20:38;;;;;;;3.60;1.80;;;10.30;99.90;;;;;;10468663;28;20142;-60
2024/03/03 19:25:42;;;;;;;7.93;1.63;;;10.20;99.90;;;;;;10469425;28;20056;-59
2024/03/03 19:30:44;;;;;;;3.30;1.17;;;11.80;99.90;;;;;;10468450;28;20056;-60
2024/03/03 19:35:47;;;;;;;6.30;1.30;;;11.00;99.90;;;;;;10459899;28;20075;-57
2024/03/03 19:40:52;;;;;;;6.72;1.27;;;10.30;99.90;;;;;;10461680;28;20061;-58
2024/03/03 19:45:54;;;;;;;5.32;1.42;;;11.70;99.90;;;;;;10468188;28;20056;-59
2024/03/03 19:50:56;;;;;;;8.60;2.53;;;12.70;99.90;;;;;;10472011;28;20061;-58
2024/03/03 19:55:59;;;;;;;5.70;1.02;;;13.70;99.90;;;;;;10467712;28;20075;-56
2024/03/03 20:01:01;;;;;;;6.40;1.80;;;12.20;99.90;;;;;;10469124;28;20076;-60
2024/03/03 20:06:04;;;;;;;6.78;0.90;;;11.70;99.90;;;;;;10455580;28;20558;-62
2024/03/03 20:11:12;;;;;;;5.55;1.30;;;12.70;99.90;;;;;;10464968;28;20519;-60
2024/03/03 20:16:14;;;;;;;7.97;1.08;;;12.80;99.90;;;;;;10475338;28;20063;-59
2024/03/03 20:21:17;;;;;;;10.30;1.50;;;11.40;99.90;;;;;;10469923;28;20048;-60
2024/03/03 20:26:26;;;;;;;6.20;1.80;;;11.60;99.90;;;;;;10469286;28;20632;-59
2024/03/03 20:31:28;;;;;;;7.95;1.48;;;12.00;99.90;;;;;;10462048;28;20045;-56
2024/03/03 20:36:32;;;;;;;3.83;1.30;;;12.70;99.90;;;;;;10467099;28;20765;-60
2024/03/03 20:41:41;;;;;;;4.43;1.20;;;11.30;99.90;;;;;;10462401;28;20063;-59
2024/03/03 20:46:47;;;;;;;4.45;1.55;;;10.60;99.90;;;;;;10461074;28;20056;-59
2024/03/03 20:51:51;;;;;;;10.13;1.55;;;9.80;99.90;;;;;;10470178;28;20125;-57
2024/03/03 20:56:54;;;;;;;7.82;1.83;;;9.60;99.90;;;;;;10472726;28;20044;-59
2024/03/03 21:01:56;;;;;;;10.63;1.85;;;9.30;99.90;;;;;;10471895;28;20053;-59
2024/03/03 21:06:59;;;;;;;9.13;1.95;;;9.40;99.90;;;;;;10467612;28;20139;-60
2024/03/03 21:12:04;;;;;;;6.22;1.20;;;9.00;99.90;;;;;;10472198;28;20084;-59
2024/03/03 21:17:06;;;;;;;9.10;1.20;;;9.00;99.90;;;;;;10471668;28;20373;-56
2024/03/03 21:22:08;;;;;;;20.65;3.85;;;8.70;99.90;;;;;;10475278;28;20090;-57
2024/03/03 21:27:12;;;;;;;1.67;0.68;;;8.90;99.90;;;;;;10475080;28;20210;-58
2024/03/03 21:32:13;;;;;;;16.25;1.67;;;8.80;99.90;;;;;;10476559;28;20912;-60
2024/03/03 21:37:16;;;;;;;7.18;1.33;;;8.90;99.90;;;;;;10467967;28;20078;-58
2024/03/03 21:42:19;;;;;;;6.55;1.45;;;8.90;99.90;;;;;;10469674;28;20052;-57
2024/03/03 21:47:21;;;;;;;7.63;1.13;;;10.00;99.90;;;;;;10470652;28;20048;-61
2024/03/03 21:52:23;;;;;;;3.33;0.77;;;10.50;99.90;;;;;;10469264;28;20048;-59
2024/03/03 21:57:26;;;;;;;6.15;1.23;;;10.00;99.90;;;;;;10468079;28;20051;-59
2024/03/03 22:02:29;;;;;;;6.78;1.20;;;10.70;99.90;;;;;;10471074;28;20079;-58
2024/03/03 22:07:31;;;;;;;8.47;1.87;;;9.80;99.90;;;;;;10478893;28;20040;-57
2024/03/03 22:12:34;;;;;;;13.63;1.45;;;10.00;99.90;;;;;;10473939;28;20048;-59
2024/03/03 22:17:36;;;;;;;9.98;2.03;;;10.40;99.90;;;;;;10481558;28;21112;-59
2024/03/03 22:22:38;;;;;;;12.68;1.92;;;11.00;99.90;;;;;;10482005;28;20132;-59
2024/03/03 22:27:41;;;;;;;12.48;1.80;;;10.00;99.90;;;;;;10479518;28;20524;-58
2024/03/03 22:32:43;;;;;;;7.40;1.85;;;10.00;99.90;;;;;;10470408;28;20153;-55
2024/03/03 22:37:45;;;;;;;4.45;1.77;;;9.80;99.90;;;;;;10477168;28;20044;-57
2024/03/03 22:42:49;;;;;;;6.55;1.20;;;10.00;99.90;;;;;;10485859;28;20063;-59
2024/03/03 22:47:51;;;;;;;5.78;1.15;;;10.50;99.90;;;;;;10480336;28;22673;-59
2024/03/03 22:52:53;;;;;;;9.07;1.27;;;9.30;99.90;;;;;;10466863;28;20053;-58
2024/03/03 22:57:56;;;;;;;6.30;1.40;;;9.90;99.90;;;;;;10456582;28;20346;-58
2024/03/03 23:02:58;;;;;;;5.10;1.05;;;10.70;99.90;;;;;;10480066;28;20104;-59
2024/03/03 23:08:00;;;;;;;4.22;1.00;;;9.90;99.90;;;;;;10468186;28;20139;-61
2024/03/03 23:13:04;;;;;;;4.53;1.13;;;9.60;99.90;;;;;;10479275;28;20550;-58
2024/03/03 23:18:06;;;;;;;6.00;1.10;;;10.70;99.90;;;;;;10484292;28;20040;-59
2024/03/03 23:23:08;;;;;;;4.80;1.10;;;10.20;99.90;;;;;;10470642;28;20770;-59
2024/03/03 23:28:12;;;;;;;2.78;0.85;;;9.40;99.90;;;;;;10482597;28;20466;-57
2024/03/03 23:33:14;;;;;;;5.15;0.90;;;9.70;99.90;;;;;;10484821;28;20067;-58
2024/03/03 23:38:15;;;;;;;7.28;1.20;;;10.00;99.90;;;;;;10476885;28;20079;-58
2024/03/03 23:43:19;;;;;;;6.28;1.33;;;9.60;99.90;;;;;;10474757;28;20051;-57
2024/03/03 23:48:21;;;;;;;4.95;0.85;;;9.50;99.90;;;;;;10489764;28;20135;-57
2024/03/03 23:53:23;;;;;;;7.93;1.10;;;9.20;99.90;;;;;;10478583;28;21341;-58
2024/03/03 23:58:26;;;;;;;3.35;1.35;;;8.80;99.90;;;;;;10480441;28;20045;-56
